sensor_id;sensor_type;location;lat;lon;timestamp;pressure;altitude;pressure_sealevel;temperature;humidity
68301;BME280;55146;47.468;18.806;2022-09-09T00:04:37;99736.44;;;18.48;90.59
68301;BME280;55146;47.468;18.806;2022-09-09T00:15:11;99734.28;;;18.63;88.94
68301;BME280;55146;47.468;18.806;2022-09-09T00:18:02;99735.72;;;18.69;88.92
68301;BME280;55146;47.468;18.806;2022-09-09T00:25:57;99738.53;;;18.60;89.64
68301;BME280;55146;47.468;18.806;2022-09-09T00:28:26;99746.50;;;18.70;89.32
68301;BME280;55146;47.468;18.806;2022-09-09T00:30:52;99736.03;;;18.67;89.23
68301;BME280;55146;47.468;18.806;2022-09-09T00:33:23;99741.63;;;18.67;89.04
68301;BME280;55146;47.468;18.806;2022-09-09T00:35:52;99732.84;;;18.56;89.77
68301;BME280;55146;47.468;18.806;2022-09-09T00:38:25;99742.75;;;18.28;91.22
68301;BME280;55146;47.468;18.806;2022-09-09T00:40:58;99744.09;;;18.22;92.41
68301;BME280;55146;47.468;18.806;2022-09-09T00:43:35;99743.00;;;18.06;93.90
68301;BME280;55146;47.468;18.806;2022-09-09T00:48:58;99743.16;;;18.09;93.20
68301;BME280;55146;47.468;18.806;2022-09-09T00:54:35;99749.66;;;18.22;92.27
68301;BME280;55146;47.468;18.806;2022-09-09T00:57:11;99751.38;;;18.06;92.62
68301;BME280;55146;47.468;18.806;2022-09-09T00:59:47;99754.47;;;18.04;91.86
68301;BME280;55146;47.468;18.806;2022-09-09T01:02:30;99760.41;;;17.94;93.06
68301;BME280;55146;47.468;18.806;2022-09-09T01:05:27;99766.09;;;18.06;92.62
68301;BME280;55146;47.468;18.806;2022-09-09T01:07:52;99773.19;;;17.95;93.50
68301;BME280;55146;47.468;18.806;2022-09-09T01:10:29;99767.66;;;17.69;94.21
68301;BME280;55146;47.468;18.806;2022-09-09T01:12:58;99771.91;;;17.58;94.34
68301;BME280;55146;47.468;18.806;2022-09-09T01:15:28;99771.72;;;17.81;93.89
68301;BME280;55146;47.468;18.806;2022-09-09T01:18:02;99770.91;;;17.80;94.64
68301;BME280;55146;47.468;18.806;2022-09-09T01:28:28;99774.16;;;17.99;93.15
68301;BME280;55146;47.468;18.806;2022-09-09T01:30:55;99774.47;;;17.98;93.06
68301;BME280;55146;47.468;18.806;2022-09-09T01:33:21;99784.78;;;17.97;92.63
68301;BME280;55146;47.468;18.806;2022-09-09T01:38:16;99792.44;;;18.09;91.57
68301;BME280;55146;47.468;18.806;2022-09-09T01:40:43;99789.16;;;18.15;90.78
68301;BME280;55146;47.468;18.806;2022-09-09T01:43:09;99798.50;;;18.19;90.17
68301;BME280;55146;47.468;18.806;2022-09-09T01:45:34;99792.09;;;18.19;90.10
68301;BME280;55146;47.468;18.806;2022-09-09T01:48:00;99794.87;;;18.19;89.49
68301;BME280;55146;47.468;18.806;2022-09-09T01:50:27;99798.69;;;18.14;89.35
68301;BME280;55146;47.468;18.806;2022-09-09T01:52:56;99798.97;;;18.22;88.94
68301;BME280;55146;47.468;18.806;2022-09-09T01:55:38;99800.59;;;18.23;88.78
68301;BME280;55146;47.468;18.806;2022-09-09T02:01:15;99794.38;;;18.26;88.92
68301;BME280;55146;47.468;18.806;2022-09-09T02:03:47;99801.22;;;18.28;89.32
68301;BME280;55146;47.468;18.806;2022-09-09T02:06:26;99797.97;;;18.26;89.34
68301;BME280;55146;47.468;18.806;2022-09-09T02:08:55;99796.53;;;18.20;89.25
68301;BME280;55146;47.468;18.806;2022-09-09T02:11:23;99795.34;;;18.21;89.26
68301;BME280;55146;47.468;18.806;2022-09-09T02:13:53;99806.34;;;18.17;89.88
68301;BME280;55146;47.468;18.806;2022-09-09T02:18:56;99788.69;;;18.13;90.42
68301;BME280;55146;47.468;18.806;2022-09-09T02:21:24;99792.44;;;18.17;89.98
68301;BME280;55146;47.468;18.806;2022-09-09T02:23:55;99790.16;;;18.02;90.45
68301;BME280;55146;47.468;18.806;2022-09-09T02:26:21;99790.03;;;17.90;91.81
68301;BME280;55146;47.468;18.806;2022-09-09T02:28:49;99796.78;;;17.81;92.41
68301;BME280;55146;47.468;18.806;2022-09-09T02:31:21;99793.19;;;17.63;93.46
68301;BME280;55146;47.468;18.806;2022-09-09T02:33:52;99786.81;;;17.71;93.57
68301;BME280;55146;47.468;18.806;2022-09-09T02:36:19;99797.28;;;17.65;93.14
68301;BME280;55146;47.468;18.806;2022-09-09T02:38:47;99801.06;;;17.69;93.33
68301;BME280;55146;47.468;18.806;2022-09-09T02:41:24;99795.31;;;17.74;93.30
68301;BME280;55146;47.468;18.806;2022-09-09T02:43:51;99797.78;;;17.76;92.31
68301;BME280;55146;47.468;18.806;2022-09-09T02:46:36;99793.84;;;17.77;92.04
68301;BME280;55146;47.468;18.806;2022-09-09T02:49:39;99794.50;;;17.74;92.55
68301;BME280;55146;47.468;18.806;2022-09-09T02:52:08;99800.72;;;17.71;92.82
68301;BME280;55146;47.468;18.806;2022-09-09T02:54:35;99802.16;;;17.60;93.45
68301;BME280;55146;47.468;18.806;2022-09-09T02:57:08;99803.63;;;17.49;93.41
68301;BME280;55146;47.468;18.806;2022-09-09T02:59:35;99801.69;;;17.58;93.55
68301;BME280;55146;47.468;18.806;2022-09-09T03:02:01;99799.53;;;17.55;93.46
68301;BME280;55146;47.468;18.806;2022-09-09T03:04:26;99809.19;;;17.49;93.59
68301;BME280;55146;47.468;18.806;2022-09-09T03:06:52;99815.75;;;17.44;94.19
68301;BME280;55146;47.468;18.806;2022-09-09T03:09:17;99814.28;;;17.55;93.37
68301;BME280;55146;47.468;18.806;2022-09-09T03:11:42;99813.16;;;17.65;93.07
68301;BME280;55146;47.468;18.806;2022-09-09T03:14:08;99812.28;;;17.47;93.65
68301;BME280;55146;47.468;18.806;2022-09-09T03:16:33;99816.09;;;17.34;94.48
68301;BME280;55146;47.468;18.806;2022-09-09T03:19:00;99820.16;;;17.45;93.90
68301;BME280;55146;47.468;18.806;2022-09-09T03:21:25;99823.75;;;17.54;93.01
68301;BME280;55146;47.468;18.806;2022-09-09T03:23:51;99813.78;;;17.53;92.87
68301;BME280;55146;47.468;18.806;2022-09-09T03:26:16;99812.63;;;17.54;92.80
68301;BME280;55146;47.468;18.806;2022-09-09T03:28:42;99815.44;;;17.46;92.90
68301;BME280;55146;47.468;18.806;2022-09-09T03:31:08;99821.47;;;17.48;92.81
68301;BME280;55146;47.468;18.806;2022-09-09T03:33:38;99821.78;;;17.55;92.32
68301;BME280;55146;47.468;18.806;2022-09-09T03:36:05;99820.00;;;17.59;91.46
68301;BME280;55146;47.468;18.806;2022-09-09T03:38:30;99819.50;;;17.57;91.37
68301;BME280;55146;47.468;18.806;2022-09-09T03:40:57;99815.59;;;17.58;90.97
68301;BME280;55146;47.468;18.806;2022-09-09T03:43:23;99820.00;;;17.50;91.30
68301;BME280;55146;47.468;18.806;2022-09-09T03:45:49;99822.47;;;17.52;91.35
68301;BME280;55146;47.468;18.806;2022-09-09T03:48:16;99835.22;;;17.53;90.72
68301;BME280;55146;47.468;18.806;2022-09-09T03:50:49;99832.09;;;17.54;90.43
68301;BME280;55146;47.468;18.806;2022-09-09T03:53:16;99835.38;;;17.56;90.04
68301;BME280;55146;47.468;18.806;2022-09-09T03:55:46;99840.63;;;17.58;89.97
68301;BME280;55146;47.468;18.806;2022-09-09T03:58:13;99841.09;;;17.60;90.15
68301;BME280;55146;47.468;18.806;2022-09-09T04:00:38;99835.03;;;17.15;92.95
68301;BME280;55146;47.468;18.806;2022-09-09T04:03:08;99833.66;;;17.04;94.44
68301;BME280;55146;47.468;18.806;2022-09-09T04:05:34;99826.69;;;17.15;93.91
68301;BME280;55146;47.468;18.806;2022-09-09T04:07:59;99828.00;;;17.26;93.37
68301;BME280;55146;47.468;18.806;2022-09-09T04:10:25;99831.75;;;17.30;92.99
68301;BME280;55146;47.468;18.806;2022-09-09T04:12:50;99829.00;;;17.21;93.56
68301;BME280;55146;47.468;18.806;2022-09-09T04:15:15;99835.53;;;17.34;92.99
68301;BME280;55146;47.468;18.806;2022-09-09T04:17:40;99827.69;;;17.27;93.51
68301;BME280;55146;47.468;18.806;2022-09-09T04:20:06;99828.31;;;17.24;93.49
68301;BME280;55146;47.468;18.806;2022-09-09T04:22:36;99825.53;;;17.16;94.60
68301;BME280;55146;47.468;18.806;2022-09-09T04:25:04;99834.66;;;16.99;95.80
68301;BME280;55146;47.468;18.806;2022-09-09T04:27:30;99831.25;;;17.11;94.89
68301;BME280;55146;47.468;18.806;2022-09-09T04:29:56;99836.25;;;16.91;95.95
68301;BME280;55146;47.468;18.806;2022-09-09T04:32:21;99830.41;;;17.02;95.79
68301;BME280;55146;47.468;18.806;2022-09-09T04:34:47;99831.56;;;17.01;96.58
68301;BME280;55146;47.468;18.806;2022-09-09T04:37:12;99822.91;;;17.02;96.21
68301;BME280;55146;47.468;18.806;2022-09-09T04:39:39;99831.59;;;17.18;95.03
68301;BME280;55146;47.468;18.806;2022-09-09T04:42:04;99827.50;;;17.24;94.42
68301;BME280;55146;47.468;18.806;2022-09-09T04:44:29;99819.34;;;17.27;93.42
68301;BME280;55146;47.468;18.806;2022-09-09T04:46:55;99817.03;;;17.29;92.97
68301;BME280;55146;47.468;18.806;2022-09-09T04:49:21;99820.66;;;17.38;92.47
68301;BME280;55146;47.468;18.806;2022-09-09T04:51:48;99827.03;;;17.39;92.07
68301;BME280;55146;47.468;18.806;2022-09-09T04:54:14;99825.41;;;17.38;92.29
68301;BME280;55146;47.468;18.806;2022-09-09T04:56:39;99825.22;;;17.43;92.00
68301;BME280;55146;47.468;18.806;2022-09-09T04:59:06;99816.56;;;17.27;92.51
68301;BME280;55146;47.468;18.806;2022-09-09T05:01:31;99825.37;;;17.21;92.08
68301;BME280;55146;47.468;18.806;2022-09-09T05:03:57;99823.59;;;17.25;93.04
68301;BME280;55146;47.468;18.806;2022-09-09T05:06:23;99825.19;;;17.17;93.12
68301;BME280;55146;47.468;18.806;2022-09-09T05:08:48;99835.03;;;17.23;93.26
68301;BME280;55146;47.468;18.806;2022-09-09T05:11:22;99841.25;;;17.20;93.86
68301;BME280;55146;47.468;18.806;2022-09-09T05:13:52;99838.63;;;17.41;93.13
68301;BME280;55146;47.468;18.806;2022-09-09T05:16:19;99830.94;;;17.29;93.51
68301;BME280;55146;47.468;18.806;2022-09-09T05:18:45;99830.78;;;17.43;93.29
68301;BME280;55146;47.468;18.806;2022-09-09T05:21:15;99828.84;;;17.44;92.90
68301;BME280;55146;47.468;18.806;2022-09-09T05:23:41;99832.44;;;17.53;92.97
68301;BME280;55146;47.468;18.806;2022-09-09T05:26:10;99834.25;;;17.66;92.42
68301;BME280;55146;47.468;18.806;2022-09-09T05:28:36;99840.47;;;17.71;91.92
68301;BME280;55146;47.468;18.806;2022-09-09T05:31:06;99834.44;;;17.69;92.29
68301;BME280;55146;47.468;18.806;2022-09-09T05:33:36;99831.34;;;17.71;92.22
68301;BME280;55146;47.468;18.806;2022-09-09T05:36:07;99832.78;;;17.68;92.72
68301;BME280;55146;47.468;18.806;2022-09-09T05:38:33;99830.97;;;17.72;92.96
68301;BME280;55146;47.468;18.806;2022-09-09T05:41:00;99832.44;;;17.87;91.92
68301;BME280;55146;47.468;18.806;2022-09-09T05:43:26;99829.53;;;17.84;92.52
68301;BME280;55146;47.468;18.806;2022-09-09T05:46:00;99827.53;;;17.93;92.61
68301;BME280;55146;47.468;18.806;2022-09-09T05:48:43;99833.09;;;18.01;92.60
68301;BME280;55146;47.468;18.806;2022-09-09T05:51:16;99837.84;;;18.01;91.84
68301;BME280;55146;47.468;18.806;2022-09-09T05:53:43;99843.38;;;18.18;91.57
68301;BME280;55146;47.468;18.806;2022-09-09T05:56:21;99840.09;;;18.16;92.06
68301;BME280;55146;47.468;18.806;2022-09-09T05:58:48;99843.50;;;18.30;91.70
68301;BME280;55146;47.468;18.806;2022-09-09T06:01:19;99846.94;;;18.36;91.43
68301;BME280;55146;47.468;18.806;2022-09-09T06:03:46;99847.06;;;18.39;91.93
68301;BME280;55146;47.468;18.806;2022-09-09T06:06:18;99852.47;;;18.44;91.77
68301;BME280;55146;47.468;18.806;2022-09-09T06:08:50;99841.50;;;18.56;91.42
68301;BME280;55146;47.468;18.806;2022-09-09T06:11:21;99846.53;;;18.63;91.35
68301;BME280;55146;47.468;18.806;2022-09-09T06:13:47;99849.31;;;18.54;90.45
68301;BME280;55146;47.468;18.806;2022-09-09T06:16:15;99850.16;;;18.46;90.35
68301;BME280;55146;47.468;18.806;2022-09-09T06:18:42;99838.44;;;18.24;93.28
68301;BME280;55146;47.468;18.806;2022-09-09T06:21:13;99835.41;;;18.46;92.24
68301;BME280;55146;47.468;18.806;2022-09-09T06:23:40;99847.06;;;18.56;91.54
68301;BME280;55146;47.468;18.806;2022-09-09T06:26:20;99849.16;;;18.59;90.88
68301;BME280;55146;47.468;18.806;2022-09-09T06:28:48;99851.41;;;18.75;89.99
68301;BME280;55146;47.468;18.806;2022-09-09T06:31:16;99852.38;;;18.79;90.70
68301;BME280;55146;47.468;18.806;2022-09-09T06:33:50;99852.38;;;18.79;91.54
68301;BME280;55146;47.468;18.806;2022-09-09T06:36:22;99846.47;;;18.80;89.97
68301;BME280;55146;47.468;18.806;2022-09-09T06:38:48;99838.34;;;18.58;89.87
68301;BME280;55146;47.468;18.806;2022-09-09T06:41:16;99844.78;;;18.88;89.83
68301;BME280;55146;47.468;18.806;2022-09-09T06:43:42;99849.34;;;18.92;89.80
68301;BME280;55146;47.468;18.806;2022-09-09T06:46:15;99848.19;;;18.93;88.42
68301;BME280;55146;47.468;18.806;2022-09-09T06:48:42;99858.84;;;19.00;89.51
68301;BME280;55146;47.468;18.806;2022-09-09T06:51:18;99850.84;;;19.19;88.94
68301;BME280;55146;47.468;18.806;2022-09-09T06:53:45;99849.94;;;19.27;88.17
68301;BME280;55146;47.468;18.806;2022-09-09T06:58:40;99847.25;;;19.19;88.21
68301;BME280;55146;47.468;18.806;2022-09-09T07:01:09;99856.06;;;18.91;90.35
68301;BME280;55146;47.468;18.806;2022-09-09T07:03:35;99860.06;;;18.82;90.19
68301;BME280;55146;47.468;18.806;2022-09-09T07:06:00;99862.78;;;18.99;88.76
68301;BME280;55146;47.468;18.806;2022-09-09T07:08:26;99865.31;;;19.84;87.66
68301;BME280;55146;47.468;18.806;2022-09-09T07:10:52;99845.91;;;20.53;83.61
68301;BME280;55146;47.468;18.806;2022-09-09T07:13:23;99845.34;;;20.96;81.05
68301;BME280;55146;47.468;18.806;2022-09-09T07:15:51;99857.72;;;21.07;78.96
68301;BME280;55146;47.468;18.806;2022-09-09T07:18:17;99860.16;;;21.45;79.07
68301;BME280;55146;47.468;18.806;2022-09-09T07:20:42;99865.56;;;21.78;76.80
68301;BME280;55146;47.468;18.806;2022-09-09T07:23:08;99867.38;;;21.98;75.44
68301;BME280;55146;47.468;18.806;2022-09-09T07:25:33;99870.19;;;22.26;74.95
68301;BME280;55146;47.468;18.806;2022-09-09T07:27:58;99868.69;;;22.60;74.84
68301;BME280;55146;47.468;18.806;2022-09-09T07:30:24;99871.59;;;22.64;74.10
68301;BME280;55146;47.468;18.806;2022-09-09T07:32:51;99872.84;;;22.66;72.99
68301;BME280;55146;47.468;18.806;2022-09-09T07:35:16;99871.44;;;23.04;71.96
68301;BME280;55146;47.468;18.806;2022-09-09T07:37:42;99871.59;;;23.11;70.76
68301;BME280;55146;47.468;18.806;2022-09-09T07:40:07;99872.63;;;22.87;71.91
68301;BME280;55146;47.468;18.806;2022-09-09T07:42:33;99866.34;;;23.09;71.47
68301;BME280;55146;47.468;18.806;2022-09-09T07:44:58;99871.22;;;23.28;70.55
68301;BME280;55146;47.468;18.806;2022-09-09T07:47:24;99871.75;;;23.33;69.72
68301;BME280;55146;47.468;18.806;2022-09-09T07:49:50;99866.31;;;23.40;67.61
68301;BME280;55146;47.468;18.806;2022-09-09T07:52:15;99865.50;;;23.40;67.89
68301;BME280;55146;47.468;18.806;2022-09-09T07:54:42;99867.56;;;23.59;69.22
68301;BME280;55146;47.468;18.806;2022-09-09T07:57:07;99863.53;;;23.75;65.63
68301;BME280;55146;47.468;18.806;2022-09-09T07:59:32;99869.22;;;23.98;66.80
68301;BME280;55146;47.468;18.806;2022-09-09T08:01:58;99869.94;;;23.95;65.40
68301;BME280;55146;47.468;18.806;2022-09-09T08:04:25;99861.69;;;24.22;65.60
68301;BME280;55146;47.468;18.806;2022-09-09T08:06:56;99866.03;;;24.38;63.86
68301;BME280;55146;47.468;18.806;2022-09-09T08:09:23;99856.56;;;24.08;65.97
68301;BME280;55146;47.468;18.806;2022-09-09T08:11:54;99862.19;;;24.27;66.11
68301;BME280;55146;47.468;18.806;2022-09-09T08:14:20;99863.69;;;24.86;65.51
68301;BME280;55146;47.468;18.806;2022-09-09T08:16:47;99863.75;;;24.67;61.98
68301;BME280;55146;47.468;18.806;2022-09-09T08:19:14;99869.50;;;25.19;62.29
68301;BME280;55146;47.468;18.806;2022-09-09T08:21:43;99864.13;;;25.37;60.62
68301;BME280;55146;47.468;18.806;2022-09-09T08:24:10;99865.81;;;25.68;62.74
68301;BME280;55146;47.468;18.806;2022-09-09T08:26:38;99858.41;;;25.86;61.63
68301;BME280;55146;47.468;18.806;2022-09-09T08:29:06;99865.28;;;25.85;60.09
68301;BME280;55146;47.468;18.806;2022-09-09T08:31:41;99864.22;;;25.67;56.89
68301;BME280;55146;47.468;18.806;2022-09-09T08:34:08;99866.59;;;25.95;59.62
68301;BME280;55146;47.468;18.806;2022-09-09T08:36:39;99864.13;;;25.90;58.64
68301;BME280;55146;47.468;18.806;2022-09-09T08:39:08;99866.13;;;26.23;59.73
68301;BME280;55146;47.468;18.806;2022-09-09T08:52:30;99869.66;;;26.49;56.18
68301;BME280;55146;47.468;18.806;2022-09-09T08:55:10;99864.47;;;26.51;55.70
68301;BME280;55146;47.468;18.806;2022-09-09T08:57:38;99868.75;;;26.79;55.78
68301;BME280;55146;47.468;18.806;2022-09-09T09:00:04;99862.34;;;26.85;54.08
68301;BME280;55146;47.468;18.806;2022-09-09T09:02:48;99862.84;;;26.54;54.78
68301;BME280;55146;47.468;18.806;2022-09-09T09:08:25;99869.09;;;26.70;52.52
68301;BME280;55146;47.468;18.806;2022-09-09T09:10:54;99860.72;;;26.81;53.09
68301;BME280;55146;47.468;18.806;2022-09-09T09:13:50;99858.53;;;26.64;51.44
68301;BME280;55146;47.468;18.806;2022-09-09T09:18:55;99853.56;;;27.42;52.14
68301;BME280;55146;47.468;18.806;2022-09-09T09:21:34;99849.09;;;27.41;50.42
68301;BME280;55146;47.468;18.806;2022-09-09T09:24:01;99849.94;;;26.90;53.82
68301;BME280;55146;47.468;18.806;2022-09-09T09:26:33;99844.19;;;27.27;50.29
68301;BME280;55146;47.468;18.806;2022-09-09T09:29:01;99842.16;;;27.27;50.54
68301;BME280;55146;47.468;18.806;2022-09-09T09:31:33;99838.78;;;27.62;49.25
68301;BME280;55146;47.468;18.806;2022-09-09T09:33:58;99822.72;;;27.77;49.63
68301;BME280;55146;47.468;18.806;2022-09-09T09:36:34;99826.31;;;27.12;48.42
68301;BME280;55146;47.468;18.806;2022-09-09T09:39:01;99830.19;;;27.48;51.14
68301;BME280;55146;47.468;18.806;2022-09-09T09:41:48;99827.75;;;27.47;47.94
68301;BME280;55146;47.468;18.806;2022-09-09T09:44:31;99832.03;;;27.23;47.12
68301;BME280;55146;47.468;18.806;2022-09-09T09:47:20;99841.69;;;27.18;47.76
68301;BME280;55146;47.468;18.806;2022-09-09T09:49:56;99839.25;;;27.17;47.43
68301;BME280;55146;47.468;18.806;2022-09-09T09:52:33;99837.53;;;27.56;45.64
68301;BME280;55146;47.468;18.806;2022-09-09T09:55:02;99837.16;;;27.58;45.34
68301;BME280;55146;47.468;18.806;2022-09-09T09:57:30;99834.78;;;27.74;43.64
68301;BME280;55146;47.468;18.806;2022-09-09T10:00:14;99839.75;;;27.95;46.35
68301;BME280;55146;47.468;18.806;2022-09-09T10:02:43;99830.16;;;28.28;42.70
68301;BME280;55146;47.468;18.806;2022-09-09T10:05:13;99826.41;;;28.02;44.05
68301;BME280;55146;47.468;18.806;2022-09-09T10:07:39;99830.97;;;28.17;41.19
68301;BME280;55146;47.468;18.806;2022-09-09T10:10:05;99823.19;;;28.00;43.81
68301;BME280;55146;47.468;18.806;2022-09-09T10:12:55;99819.59;;;28.10;43.63
68301;BME280;55146;47.468;18.806;2022-09-09T10:21:02;99816.88;;;28.46;41.06
68301;BME280;55146;47.468;18.806;2022-09-09T10:26:31;99837.97;;;27.58;45.21
68301;BME280;55146;47.468;18.806;2022-09-09T10:29:14;99827.88;;;28.86;44.05
68301;BME280;55146;47.468;18.806;2022-09-09T10:32:57;99825.84;;;28.80;44.48
68301;BME280;55146;47.468;18.806;2022-09-09T10:35:00;99823.44;;;28.82;42.15
68301;BME280;55146;47.468;18.806;2022-09-09T10:37:38;99823.00;;;28.76;39.22
68301;BME280;55146;47.468;18.806;2022-09-09T10:42:49;99836.78;;;28.81;38.50
68301;BME280;55146;47.468;18.806;2022-09-09T10:45:21;99829.47;;;29.16;42.11
68301;BME280;55146;47.468;18.806;2022-09-09T10:50:52;99822.16;;;29.47;41.18
68301;BME280;55146;47.468;18.806;2022-09-09T10:56:13;99814.09;;;29.17;36.93
68301;BME280;55146;47.468;18.806;2022-09-09T11:01:14;99824.94;;;28.37;38.88
68301;BME280;55146;47.468;18.806;2022-09-09T11:03:42;99820.81;;;28.13;39.27
68301;BME280;55146;47.468;18.806;2022-09-09T11:06:19;99818.19;;;27.65;38.67
68301;BME280;55146;47.468;18.806;2022-09-09T11:08:46;99826.00;;;27.24;40.52
68301;BME280;55146;47.468;18.806;2022-09-09T11:11:29;99826.03;;;26.80;40.51
68301;BME280;55146;47.468;18.806;2022-09-09T11:16:52;99816.63;;;26.66;43.33
68301;BME280;55146;47.468;18.806;2022-09-09T11:21:52;99809.25;;;26.98;45.36
68301;BME280;55146;47.468;18.806;2022-09-09T11:24:34;99812.50;;;26.96;42.23
68301;BME280;55146;47.468;18.806;2022-09-09T11:27:20;99823.78;;;26.96;42.17
68301;BME280;55146;47.468;18.806;2022-09-09T11:30:14;99822.59;;;26.61;43.51
68301;BME280;55146;47.468;18.806;2022-09-09T11:35:52;99828.41;;;26.34;43.32
68301;BME280;55146;47.468;18.806;2022-09-09T11:38:27;99833.13;;;26.60;43.37
68301;BME280;55146;47.468;18.806;2022-09-09T11:40:55;99826.31;;;27.12;40.40
68301;BME280;55146;47.468;18.806;2022-09-09T11:43:45;99813.16;;;26.83;42.38
68301;BME280;55146;47.468;18.806;2022-09-09T11:46:13;99814.56;;;26.63;41.55
68301;BME280;55146;47.468;18.806;2022-09-09T11:48:58;99811.72;;;26.59;44.22
68301;BME280;55146;47.468;18.806;2022-09-09T11:51:27;99810.19;;;26.69;43.89
68301;BME280;55146;47.468;18.806;2022-09-09T11:54:04;99808.22;;;27.24;43.81
68301;BME280;55146;47.468;18.806;2022-09-09T11:56:48;99804.03;;;27.58;39.26
68301;BME280;55146;47.468;18.806;2022-09-09T11:59:21;99802.59;;;28.03;39.88
68301;BME280;55146;47.468;18.806;2022-09-09T12:01:58;99804.59;;;28.03;42.84
68301;BME280;55146;47.468;18.806;2022-09-09T12:06:56;99805.41;;;27.20;39.31
68301;BME280;55146;47.468;18.806;2022-09-09T12:09:45;99809.22;;;27.53;40.32
68301;BME280;55146;47.468;18.806;2022-09-09T12:14:43;99819.09;;;27.87;42.75
68301;BME280;55146;47.468;18.806;2022-09-09T12:19:42;99794.25;;;28.39;40.99
68301;BME280;55146;47.468;18.806;2022-09-09T12:22:27;99801.94;;;28.60;41.43
68301;BME280;55146;47.468;18.806;2022-09-09T12:27:36;99798.13;;;27.99;37.43
68301;BME280;55146;47.468;18.806;2022-09-09T12:30:15;99784.53;;;28.43;42.15
68301;BME280;55146;47.468;18.806;2022-09-09T12:32:40;99777.63;;;28.34;40.41
68301;BME280;55146;47.468;18.806;2022-09-09T12:35:09;99782.25;;;27.66;41.08
68301;BME280;55146;47.468;18.806;2022-09-09T12:37:55;99785.19;;;27.15;39.40
68301;BME280;55146;47.468;18.806;2022-09-09T12:40:23;99774.28;;;27.17;43.29
68301;BME280;55146;47.468;18.806;2022-09-09T12:42:50;99773.94;;;27.29;43.23
68301;BME280;55146;47.468;18.806;2022-09-09T12:45:24;99759.53;;;27.45;42.44
68301;BME280;55146;47.468;18.806;2022-09-09T12:47:57;99761.28;;;27.74;41.54
68301;BME280;55146;47.468;18.806;2022-09-09T12:50:27;99758.38;;;27.56;39.07
68301;BME280;55146;47.468;18.806;2022-09-09T12:52:56;99748.34;;;27.69;41.56
68301;BME280;55146;47.468;18.806;2022-09-09T12:55:35;99747.09;;;27.56;39.27
68301;BME280;55146;47.468;18.806;2022-09-09T12:58:02;99747.56;;;27.80;45.38
68301;BME280;55146;47.468;18.806;2022-09-09T13:00:33;99737.53;;;28.03;40.67
68301;BME280;55146;47.468;18.806;2022-09-09T13:03:13;99737.56;;;28.07;41.01
68301;BME280;55146;47.468;18.806;2022-09-09T13:05:39;99732.28;;;27.95;40.59
68301;BME280;55146;47.468;18.806;2022-09-09T13:08:08;99730.31;;;28.24;40.27
68301;BME280;55146;47.468;18.806;2022-09-09T13:10:59;99727.09;;;28.53;39.94
68301;BME280;55146;47.468;18.806;2022-09-09T13:13:29;99720.25;;;28.26;38.93
68301;BME280;55146;47.468;18.806;2022-09-09T13:16:00;99711.75;;;28.30;36.72
68301;BME280;55146;47.468;18.806;2022-09-09T13:18:31;99710.50;;;28.13;39.82
68301;BME280;55146;47.468;18.806;2022-09-09T13:20:58;99712.41;;;27.73;37.85
68301;BME280;55146;47.468;18.806;2022-09-09T13:23:29;99716.78;;;27.53;37.08
68301;BME280;55146;47.468;18.806;2022-09-09T13:26:04;99722.75;;;27.37;41.22
68301;BME280;55146;47.468;18.806;2022-09-09T13:28:31;99732.19;;;26.90;41.73
68301;BME280;55146;47.468;18.806;2022-09-09T13:31:03;99722.12;;;26.96;42.15
68301;BME280;55146;47.468;18.806;2022-09-09T13:33:34;99721.81;;;26.57;40.99
68301;BME280;55146;47.468;18.806;2022-09-09T13:36:08;99725.81;;;26.56;42.25
68301;BME280;55146;47.468;18.806;2022-09-09T13:41:22;99724.88;;;26.42;45.30
68301;BME280;55146;47.468;18.806;2022-09-09T13:43:49;99712.47;;;26.46;44.77
68301;BME280;55146;47.468;18.806;2022-09-09T13:46:38;99710.94;;;26.60;46.13
68301;BME280;55146;47.468;18.806;2022-09-09T13:51:46;99698.22;;;26.87;43.20
68301;BME280;55146;47.468;18.806;2022-09-09T13:54:15;99692.06;;;27.32;43.11
68301;BME280;55146;47.468;18.806;2022-09-09T13:56:42;99687.19;;;27.29;40.15
68301;BME280;55146;47.468;18.806;2022-09-09T13:59:13;99678.16;;;26.95;42.28
68301;BME280;55146;47.468;18.806;2022-09-09T14:01:39;99685.44;;;26.49;41.31
68301;BME280;55146;47.468;18.806;2022-09-09T14:04:04;99678.91;;;26.34;42.01
68301;BME280;55146;47.468;18.806;2022-09-09T14:06:34;99671.72;;;26.44;42.48
68301;BME280;55146;47.468;18.806;2022-09-09T14:09:03;99664.22;;;26.18;43.18
68301;BME280;55146;47.468;18.806;2022-09-09T14:11:29;99667.56;;;26.27;45.75
68301;BME280;55146;47.468;18.806;2022-09-09T14:13:54;99662.62;;;26.21;41.25
68301;BME280;55146;47.468;18.806;2022-09-09T14:16:21;99665.75;;;26.08;45.67
68301;BME280;55146;47.468;18.806;2022-09-09T14:18:47;99673.41;;;26.08;46.96
68301;BME280;55146;47.468;18.806;2022-09-09T14:21:12;99665.03;;;26.18;46.83
68301;BME280;55146;47.468;18.806;2022-09-09T14:23:38;99662.03;;;25.97;44.11
68301;BME280;55146;47.468;18.806;2022-09-09T14:26:05;99659.31;;;26.08;45.62
68301;BME280;55146;47.468;18.806;2022-09-09T14:28:31;99654.12;;;26.17;43.82
68301;BME280;55146;47.468;18.806;2022-09-09T14:30:59;99649.09;;;26.37;43.61
68301;BME280;55146;47.468;18.806;2022-09-09T14:33:26;99649.06;;;26.33;43.51
68301;BME280;55146;47.468;18.806;2022-09-09T14:35:59;99640.69;;;26.44;43.22
68301;BME280;55146;47.468;18.806;2022-09-09T14:38:28;99646.00;;;26.56;43.39
68301;BME280;55146;47.468;18.806;2022-09-09T14:40:54;99643.56;;;26.54;44.01
68301;BME280;55146;47.468;18.806;2022-09-09T14:43:19;99645.19;;;26.55;43.79
68301;BME280;55146;47.468;18.806;2022-09-09T14:45:45;99644.41;;;26.58;41.16
68301;BME280;55146;47.468;18.806;2022-09-09T14:48:11;99650.78;;;26.48;42.13